Main page
METAR-TAF:

METAR-TAF

Airports :

Qazvin Airport

Qazvin, Iran

latitude: 36-15N, longitude: 050-00E, elevation: 1278 m

Current weather observation

The report was made 2 hours and 7 minutes ago, at 17:00 UTC
Wind 4 kt from the North
Temperature 28°C
Humidity 45%
Pressure 1007 hPa
Visibility 10 km or more
no clouds below 1500 m and no cumulonimbus

METAR: OIIK 131700Z 35004KT CAVOK 28/15 Q1007 A2975

Time: 23:37 (19:07 UTC)


TAF: missing

Weather observations and forecasts of more than 4000 airports (METAR and TAF reports).

The available stations are represented by yellow and red dots on the map.

Hover mouse over dot to see the name of the station.

Then click to see weather observations and forecasts.

To change the map : click on the green buttons with a black cross to zoom in, on the green button with a dash to zoom out, or on the green arrows for adjacent maps.


METAR-TAF: